createdAt,value
2022-08-20T00:02:50.850Z,4.40
2022-08-20T00:06:07.992Z,4.20
2022-08-20T00:09:09.662Z,3.45
2022-08-20T00:12:13.520Z,3.17
2022-08-20T00:15:22.053Z,3.50
2022-08-20T00:18:24.312Z,3.80
2022-08-20T00:21:26.688Z,3.37
2022-08-20T00:24:29.669Z,3.83
2022-08-20T00:27:31.509Z,4.07
2022-08-20T00:30:36.078Z,3.17
2022-08-20T00:33:38.942Z,3.53
2022-08-20T00:36:40.638Z,3.60
2022-08-20T00:39:42.693Z,2.92
2022-08-20T00:42:48.704Z,3.87
2022-08-20T00:45:51.137Z,3.53
2022-08-20T00:48:55.998Z,3.83
2022-08-20T00:52:19.383Z,4.00
2022-08-20T00:55:26.494Z,3.60
2022-08-20T00:58:32.421Z,4.20
2022-08-20T01:01:41.958Z,3.87
2022-08-20T01:04:56.869Z,3.45
2022-08-20T01:07:58.653Z,3.62
2022-08-20T01:11:20.806Z,3.42
2022-08-20T01:14:38.978Z,3.28
2022-08-20T01:17:46.277Z,3.30
2022-08-20T01:21:08.514Z,4.55
2022-08-20T01:24:34.187Z,3.62
2022-08-20T01:27:42.709Z,4.03
2022-08-20T01:30:45.447Z,4.25
2022-08-20T01:33:48.112Z,4.50
2022-08-20T01:36:53.524Z,3.35
2022-08-20T01:39:55.294Z,4.43
2022-08-20T01:42:59.269Z,3.08
2022-08-20T01:46:01.843Z,4.05
2022-08-20T01:49:13.661Z,3.55
2022-08-20T01:52:59.345Z,3.87
2022-08-20T01:56:03.218Z,4.78
2022-08-20T01:59:09.442Z,5.57
2022-08-20T02:02:12.823Z,4.80
2022-08-20T02:05:14.451Z,3.95
2022-08-20T02:08:16.463Z,4.80
2022-08-20T02:11:18.361Z,3.85
2022-08-20T02:14:20.604Z,3.72
2022-08-20T02:17:24.737Z,4.15
2022-08-20T02:20:30.232Z,4.15
2022-08-20T02:23:31.883Z,4.05
2022-08-20T02:26:37.825Z,4.05
2022-08-20T02:29:40.062Z,3.80
2022-08-20T02:32:42.136Z,3.42
2022-08-20T02:35:46.871Z,3.87
2022-08-20T02:38:48.561Z,4.57
2022-08-20T02:41:50.542Z,4.45
2022-08-20T02:44:53.107Z,3.83
2022-08-20T02:47:57.079Z,4.10
2022-08-20T02:51:02.107Z,4.18
2022-08-20T02:54:04.161Z,4.12
2022-08-20T02:57:06.135Z,4.70
2022-08-20T03:00:21.035Z,5.37
2022-08-20T03:03:24.494Z,5.53
2022-08-20T03:06:27.825Z,5.65
2022-08-20T03:09:29.732Z,4.45
2022-08-20T03:12:31.562Z,4.65
2022-08-20T03:15:34.865Z,4.12
2022-08-20T03:18:41.238Z,4.57
2022-08-20T03:21:43.004Z,4.85
2022-08-20T03:24:45.602Z,4.85
2022-08-20T03:27:51.095Z,5.32
2022-08-20T03:30:57.131Z,7.25
2022-08-20T03:33:59.050Z,6.53
2022-08-20T03:37:00.700Z,6.50
2022-08-20T03:40:06.609Z,4.95
2022-08-20T03:43:09.560Z,5.40
2022-08-20T03:46:23.593Z,4.57
2022-08-20T03:49:25.421Z,4.55
2022-08-20T03:52:28.629Z,4.00
2022-08-20T03:55:32.182Z,5.00
2022-08-20T03:58:35.917Z,4.72
2022-08-20T04:01:46.395Z,4.40
2022-08-20T04:04:48.707Z,4.72
2022-08-20T04:07:50.906Z,4.28
2022-08-20T04:10:54.035Z,4.20
2022-08-20T04:13:55.749Z,4.40
2022-08-20T04:16:57.743Z,4.85
2022-08-20T04:20:04.045Z,4.43
2022-08-20T04:23:06.123Z,4.65
2022-08-20T04:26:08.009Z,4.22
2022-08-20T04:29:10.082Z,4.35
2022-08-20T04:32:12.337Z,3.87
2022-08-20T04:35:16.415Z,4.53
2022-08-20T04:38:20.236Z,4.00
2022-08-20T04:41:24.247Z,3.95
2022-08-20T04:44:26.297Z,4.68
2022-08-20T04:47:34.833Z,4.37
2022-08-20T04:50:39.919Z,4.47
2022-08-20T04:53:42.901Z,3.92
2022-08-20T04:56:44.703Z,4.32
2022-08-20T04:59:46.869Z,4.53
2022-08-20T05:02:49.266Z,3.75
2022-08-20T05:05:52.027Z,4.90
2022-08-20T05:08:55.938Z,4.82
2022-08-20T05:11:57.939Z,5.20
2022-08-20T05:15:00.234Z,4.97
2022-08-20T05:18:04.254Z,5.30
2022-08-20T05:21:06.336Z,5.53
2022-08-20T05:24:08.353Z,5.80
2022-08-20T05:27:10.506Z,4.90
2022-08-20T05:30:36.077Z,5.07
2022-08-20T05:33:39.527Z,5.05
2022-08-20T05:36:46.997Z,5.70
2022-08-20T05:39:51.089Z,5.22
2022-08-20T05:42:54.077Z,5.47
2022-08-20T05:45:58.565Z,5.80
2022-08-20T05:49:01.886Z,5.53
2022-08-20T05:52:05.659Z,5.75
2022-08-20T05:55:09.960Z,6.00
2022-08-20T05:58:20.739Z,5.18
2022-08-20T06:01:22.882Z,6.30
2022-08-20T06:04:24.979Z,5.45
2022-08-20T06:07:27.463Z,4.95
2022-08-20T06:10:29.229Z,4.60
2022-08-20T06:13:30.889Z,4.40
2022-08-20T06:16:32.950Z,4.40
2022-08-20T06:19:36.211Z,4.10
2022-08-20T06:22:38.324Z,3.90
2022-08-20T06:25:40.218Z,4.65
2022-08-20T06:28:42.442Z,3.90
2022-08-20T06:31:44.055Z,3.65
2022-08-20T06:34:50.983Z,3.92
2022-08-20T06:37:53.395Z,4.18
2022-08-20T06:40:55.191Z,3.92
2022-08-20T06:43:56.867Z,4.07
2022-08-20T06:47:03.943Z,3.80
2022-08-20T06:50:09.222Z,3.80
2022-08-20T06:53:13.427Z,3.62
2022-08-20T06:56:15.170Z,3.87
2022-08-20T06:59:16.985Z,4.00
2022-08-20T07:02:18.775Z,3.95
2022-08-20T07:05:21.118Z,3.22
2022-08-20T07:08:22.960Z,3.45
2022-08-20T07:11:28.206Z,4.47
2022-08-20T07:14:30.331Z,4.40
2022-08-20T07:17:32.019Z,3.80
2022-08-20T07:20:36.293Z,5.05
2022-08-20T07:23:38.310Z,3.65
2022-08-20T07:26:40.376Z,3.65
2022-08-20T07:30:00.843Z,3.80
2022-08-20T07:33:02.533Z,3.50
2022-08-20T07:36:10.567Z,3.70
2022-08-20T07:39:12.259Z,3.80
2022-08-20T07:42:14.102Z,4.00
2022-08-20T07:45:18.777Z,3.92
2022-08-20T07:48:27.916Z,3.87
2022-08-20T07:51:33.762Z,3.62
2022-08-20T07:54:38.099Z,4.25
2022-08-20T07:57:40.062Z,3.92
2022-08-20T08:00:43.479Z,4.90
2022-08-20T08:03:50.065Z,4.93
2022-08-20T08:06:53.120Z,4.35
2022-08-20T08:09:57.038Z,6.35
2022-08-20T08:13:02.874Z,7.80
2022-08-20T08:16:06.878Z,8.95
2022-08-20T08:19:12.138Z,10.68
2022-08-20T08:22:16.536Z,11.32
2022-08-20T08:25:18.525Z,11.48
2022-08-20T08:28:21.055Z,9.98
2022-08-20T08:31:22.794Z,12.05
2022-08-20T08:34:25.726Z,13.00
2022-08-20T08:37:30.655Z,8.80
2022-08-20T08:40:33.866Z,8.77
2022-08-20T08:43:35.798Z,7.75
2022-08-20T08:46:44.173Z,8.32
2022-08-20T08:49:48.128Z,7.12
2022-08-20T08:52:54.606Z,6.95
2022-08-20T08:55:56.279Z,7.00
2022-08-20T08:59:08.849Z,6.65
2022-08-20T09:02:20.436Z,5.37
2022-08-20T09:05:27.116Z,5.22
2022-08-20T09:08:51.344Z,4.80
2022-08-20T09:11:56.038Z,4.65
2022-08-20T09:14:58.374Z,3.20
2022-08-20T09:18:00.033Z,3.78
2022-08-20T09:21:02.089Z,4.70
2022-08-20T09:24:05.090Z,4.60
2022-08-20T09:27:07.120Z,3.70
2022-08-20T09:30:10.076Z,2.62
2022-08-20T09:33:12.252Z,3.33
2022-08-20T09:36:28.717Z,3.10
2022-08-20T09:39:34.386Z,4.00
2022-08-20T09:42:41.398Z,4.45
2022-08-20T09:45:43.664Z,4.15
2022-08-20T09:48:46.286Z,4.37
2022-08-20T09:51:48.201Z,4.45
2022-08-20T09:54:52.534Z,4.12
2022-08-20T09:57:54.358Z,4.03
2022-08-20T10:00:56.847Z,4.10
2022-08-20T10:03:59.209Z,4.20
2022-08-20T10:07:01.203Z,4.07
2022-08-20T10:10:03.780Z,3.72
2022-08-20T10:13:05.620Z,4.15
2022-08-20T10:16:07.587Z,4.25
2022-08-20T10:19:09.606Z,3.85
2022-08-20T10:22:11.450Z,4.03
2022-08-20T10:25:13.586Z,3.92
2022-08-20T10:28:15.417Z,4.35
2022-08-20T10:31:17.139Z,4.20
2022-08-20T10:34:18.928Z,4.40
2022-08-20T10:37:23.475Z,4.60
2022-08-20T10:40:25.465Z,4.75
2022-08-20T10:43:28.167Z,4.25
2022-08-20T10:46:30.333Z,4.80
2022-08-20T10:49:34.649Z,5.18
2022-08-20T10:52:36.714Z,3.85
2022-08-20T10:55:38.880Z,4.45
2022-08-20T10:58:41.310Z,5.43
2022-08-20T11:01:43.106Z,5.03
2022-08-20T11:04:47.520Z,4.28
2022-08-20T11:07:56.101Z,4.35
2022-08-20T11:10:58.690Z,4.93
2022-08-20T11:14:00.426Z,4.40
2022-08-20T11:17:03.128Z,4.62
2022-08-20T11:20:07.137Z,4.85
2022-08-20T11:23:09.097Z,4.62
2022-08-20T11:26:15.672Z,5.00
2022-08-20T11:29:17.791Z,12.43
2022-08-20T11:32:19.947Z,8.07
2022-08-20T11:35:48.254Z,5.82
2022-08-20T11:38:45.565Z,4.97
2022-08-20T11:41:47.542Z,4.78
2022-08-20T11:44:56.925Z,4.15
2022-08-20T11:47:58.657Z,4.47
2022-08-20T11:51:02.233Z,4.45
2022-08-20T11:54:05.336Z,4.45
2022-08-20T11:57:08.802Z,4.87
2022-08-20T12:00:21.794Z,4.50
2022-08-20T12:03:34.329Z,4.60
2022-08-20T12:06:36.140Z,4.22
2022-08-20T12:09:41.942Z,4.35
2022-08-20T12:12:52.412Z,5.28
2022-08-20T12:15:55.755Z,4.68
2022-08-20T12:18:57.675Z,4.95
2022-08-20T12:21:59.398Z,4.68
2022-08-20T12:25:21.472Z,4.30
2022-08-20T12:28:25.969Z,4.75
2022-08-20T12:31:28.141Z,4.25
2022-08-20T12:34:29.748Z,4.22
2022-08-20T12:37:31.970Z,4.60
2022-08-20T12:40:35.291Z,4.25
2022-08-20T12:43:37.435Z,4.57
2022-08-20T12:46:39.059Z,4.55
2022-08-20T12:49:49.954Z,4.20
2022-08-20T12:52:51.744Z,4.43
2022-08-20T12:55:53.355Z,4.30
2022-08-20T12:58:55.182Z,4.78
2022-08-20T13:01:57.819Z,4.10
2022-08-20T13:05:10.192Z,4.20
2022-08-20T13:08:13.251Z,4.12
2022-08-20T13:11:14.901Z,4.45
2022-08-20T13:14:16.634Z,4.82
2022-08-20T13:17:19.196Z,4.65
2022-08-20T13:20:31.670Z,3.87
2022-08-20T13:23:36.782Z,4.20
2022-08-20T13:26:38.467Z,4.82
2022-08-20T13:29:49.983Z,4.70
2022-08-20T13:32:51.967Z,4.72
2022-08-20T13:35:54.097Z,4.43
2022-08-20T13:38:56.440Z,4.72
2022-08-20T13:41:58.057Z,4.47
2022-08-20T13:45:00.239Z,5.00
2022-08-20T13:48:02.074Z,6.12
2022-08-20T13:51:03.812Z,5.62
2022-08-20T13:54:10.830Z,5.20
2022-08-20T13:57:17.017Z,4.90
2022-08-20T14:00:31.518Z,4.90
2022-08-20T14:03:35.334Z,5.03
2022-08-20T14:06:37.074Z,5.40
2022-08-20T14:09:41.704Z,5.10
2022-08-20T14:12:43.516Z,5.90
2022-08-20T14:15:45.874Z,7.07
2022-08-20T14:18:51.074Z,6.15
2022-08-20T14:21:54.819Z,5.62
2022-08-20T14:24:56.821Z,6.43
2022-08-20T14:27:59.684Z,6.20
2022-08-20T14:31:01.636Z,6.78
2022-08-20T14:34:03.291Z,6.30
2022-08-20T14:37:23.559Z,6.40
2022-08-20T14:40:27.634Z,6.28
2022-08-20T14:43:29.287Z,6.47
2022-08-20T14:46:30.942Z,6.40
2022-08-20T14:49:33.126Z,6.75
2022-08-20T14:52:36.743Z,6.47
2022-08-20T14:55:38.898Z,6.20
2022-08-20T14:58:40.498Z,6.62
2022-08-20T15:01:42.461Z,6.30
2022-08-20T15:04:45.618Z,6.30
2022-08-20T15:07:57.359Z,6.22
2022-08-20T15:11:01.270Z,6.55
2022-08-20T15:14:03.041Z,6.20
2022-08-20T15:17:04.839Z,6.43
2022-08-20T15:20:20.739Z,6.75
2022-08-20T15:23:23.976Z,5.87
2022-08-20T15:26:25.779Z,5.43
2022-08-20T15:29:27.605Z,5.65
2022-08-20T15:32:29.554Z,5.72
2022-08-20T15:35:31.175Z,5.20
2022-08-20T15:38:33.457Z,5.43
2022-08-20T15:41:35.299Z,5.93
2022-08-20T15:44:37.971Z,5.68
2022-08-20T15:47:54.898Z,5.60
2022-08-20T15:51:23.467Z,5.90
2022-08-20T15:54:27.741Z,6.00
2022-08-20T15:57:29.614Z,6.22
2022-08-20T16:00:52.545Z,5.45
2022-08-20T16:04:10.594Z,5.50
2022-08-20T16:07:19.406Z,6.32
2022-08-20T16:10:31.436Z,5.93
2022-08-20T16:13:44.053Z,5.80
2022-08-20T16:16:50.690Z,5.90
2022-08-20T16:23:12.537Z,5.45
2022-08-20T16:26:40.186Z,6.28
2022-08-20T16:30:09.965Z,6.45
2022-08-20T16:33:25.985Z,5.57
2022-08-20T16:36:38.883Z,5.40
2022-08-20T16:39:53.886Z,5.32
2022-08-20T16:43:01.985Z,6.00
2022-08-20T16:46:16.546Z,6.22
2022-08-20T16:49:18.426Z,6.30
2022-08-20T16:52:20.022Z,6.12
2022-08-20T16:55:23.172Z,6.80
2022-08-20T16:58:25.912Z,6.65
2022-08-20T17:01:27.762Z,7.57
2022-08-20T17:04:29.629Z,7.93
2022-08-20T17:07:46.786Z,7.37
2022-08-20T17:11:10.889Z,7.10
2022-08-20T17:14:18.724Z,8.52
2022-08-20T17:17:22.493Z,7.00
2022-08-20T17:20:29.076Z,8.30
2022-08-20T17:23:54.760Z,8.18
2022-08-20T17:27:02.259Z,8.75
2022-08-20T17:30:20.018Z,8.18
2022-08-20T17:33:31.778Z,8.60
2022-08-20T17:36:33.856Z,8.50
2022-08-20T17:39:46.092Z,8.70
2022-08-20T17:42:52.556Z,8.43
2022-08-20T17:45:56.372Z,9.23
2022-08-20T17:49:01.933Z,9.68
2022-08-20T17:52:09.766Z,9.63
2022-08-20T17:55:13.203Z,8.63
2022-08-20T17:58:17.221Z,9.70
2022-08-20T18:01:21.343Z,9.43
2022-08-20T18:04:23.267Z,9.45
2022-08-20T18:07:37.323Z,10.13
2022-08-20T18:10:52.687Z,10.70
2022-08-20T18:14:15.698Z,10.45
2022-08-20T18:17:46.399Z,10.10
2022-08-20T18:21:09.634Z,11.18
2022-08-20T18:24:36.226Z,11.30
2022-08-20T18:27:48.624Z,10.70
2022-08-20T18:30:57.232Z,11.32
2022-08-20T18:34:21.786Z,11.77
2022-08-20T18:37:27.732Z,11.55
2022-08-20T18:40:33.578Z,11.00
2022-08-20T18:43:36.566Z,11.40
2022-08-20T18:46:59.914Z,11.50
2022-08-20T18:50:30.473Z,11.38
2022-08-20T18:53:34.450Z,11.77
2022-08-20T18:56:40.473Z,11.90
2022-08-20T18:59:46.033Z,11.93
2022-08-20T19:03:03.694Z,11.27
2022-08-20T19:09:59.896Z,12.23
2022-08-20T19:13:18.683Z,12.05
2022-08-20T19:16:40.662Z,12.30
2022-08-20T19:19:42.923Z,12.57
2022-08-20T19:22:47.232Z,12.60
2022-08-20T19:25:59.952Z,12.70
2022-08-20T19:29:10.639Z,13.57
2022-08-20T19:32:19.784Z,13.18
2022-08-20T19:35:24.565Z,13.73
2022-08-20T19:38:26.286Z,13.90
2022-08-20T19:41:35.361Z,14.13
2022-08-20T19:44:45.115Z,14.52
2022-08-20T19:47:56.456Z,13.00
2022-08-20T19:51:14.987Z,13.90
2022-08-20T19:54:25.146Z,15.18
2022-08-20T19:57:27.210Z,13.95
2022-08-20T20:00:37.404Z,13.82
2022-08-20T20:03:39.444Z,12.80
2022-08-20T20:06:45.424Z,12.70
2022-08-20T20:09:51.271Z,13.10
2022-08-20T20:12:53.342Z,13.27
2022-08-20T20:15:57.774Z,13.73
2022-08-20T20:19:24.764Z,14.13
2022-08-20T20:22:29.663Z,14.27
2022-08-20T20:25:33.865Z,14.38
2022-08-20T20:28:51.547Z,13.15
2022-08-20T20:35:01.117Z,12.37
2022-08-20T20:38:06.609Z,12.85
2022-08-20T20:41:21.618Z,13.70
2022-08-20T20:44:27.012Z,14.23
2022-08-20T20:47:32.376Z,13.55
2022-08-20T20:50:38.707Z,14.07
2022-08-20T20:53:53.287Z,13.05
2022-08-20T20:57:01.267Z,13.85
2022-08-20T21:00:04.754Z,14.77
2022-08-20T21:03:08.279Z,13.57
2022-08-20T21:06:10.319Z,14.07
2022-08-20T21:09:12.510Z,13.05
2022-08-20T21:12:14.142Z,12.82
2022-08-20T21:15:16.089Z,12.77
2022-08-20T21:18:17.880Z,12.95
2022-08-20T21:21:19.790Z,12.52
2022-08-20T21:24:21.844Z,11.98
2022-08-20T21:27:27.099Z,11.93
2022-08-20T21:30:29.367Z,11.80
2022-08-20T21:33:31.193Z,10.85
2022-08-20T21:36:33.179Z,11.88
2022-08-20T21:39:34.974Z,11.45
2022-08-20T21:42:38.920Z,12.00
2022-08-20T21:45:41.209Z,13.35
2022-08-20T21:48:48.129Z,11.93
2022-08-20T21:51:50.674Z,12.37
2022-08-20T21:54:52.699Z,12.23
2022-08-20T21:57:54.638Z,12.18
2022-08-20T22:01:02.769Z,12.23
2022-08-20T22:04:08.952Z,12.52
2022-08-20T22:07:11.312Z,11.05
2022-08-20T22:10:12.952Z,11.52
2022-08-20T22:13:14.926Z,12.00
2022-08-20T22:16:19.484Z,12.90
2022-08-20T22:19:21.491Z,11.45
2022-08-20T22:22:23.719Z,11.85
2022-08-20T22:25:25.378Z,11.88
2022-08-20T22:28:27.365Z,10.70
2022-08-20T22:31:33.201Z,11.12
2022-08-20T22:34:37.329Z,10.95
2022-08-20T22:37:39.336Z,10.23
2022-08-20T22:40:42.169Z,10.23
2022-08-20T22:43:56.755Z,10.38
2022-08-20T22:47:04.783Z,11.57
2022-08-20T22:50:08.612Z,11.12
2022-08-20T22:53:10.809Z,11.35
2022-08-20T22:56:19.833Z,10.60
2022-08-20T22:59:24.106Z,11.43
2022-08-20T23:02:26.024Z,10.57
2022-08-20T23:05:31.038Z,11.10
2022-08-20T23:08:32.962Z,10.88
2022-08-20T23:11:34.615Z,10.07
2022-08-20T23:14:37.151Z,10.07
2022-08-20T23:17:39.231Z,10.38
2022-08-20T23:20:45.810Z,10.90
2022-08-20T23:23:47.741Z,11.10
2022-08-20T23:26:52.874Z,10.30
2022-08-20T23:29:55.387Z,10.88
2022-08-20T23:32:57.570Z,11.12
2022-08-20T23:36:07.211Z,10.27
2022-08-20T23:39:09.927Z,10.90
2022-08-20T23:42:12.033Z,11.20
2022-08-20T23:45:15.561Z,10.88
2022-08-20T23:48:17.877Z,11.27
2022-08-20T23:51:21.398Z,11.00
2022-08-20T23:54:23.122Z,10.98
2022-08-20T23:57:25.095Z,11.35
